x

Bay Of Campeche - 214 Nm Ne Of Veracruz, Mx (42055) Wave Buoy

9:50am - Tue 23rd Sep 2014 All times are UTC.

  • Sig Wave height 1.6ft
  • Swell Direction
  • Peak Period 5s
  • Average Period 4s
  • Wind
    4mph
  • Sea Temp 86°f
  • Air Temp 84°f
  • Sea Pressure 1012.5mb

More Historic Weather Station data

Upgrade to MSW Pro to gain access to the past 30 days of data for over 8000 Wavebouys and Weather Stations around the globe.

Join Pro

Comparision Forecast

View Surf forecast
   
Tue 09/23 9:50am 1.6ft 5s 4s 4
mph
1012.5mb 86f 84f
7:50am 1.6ft 5s 4s 7 9 mph 1012.9mb 86f 84f
6:50am 1.6ft 5s 4s 7
mph
1013.2mb 85f 84f
5:50am 2ft 5s 4s 9
mph
1013.8mb 85f 85f
4:50am 2ft 5s 4s 9 11 mph 1014.2mb 86f 85f
3:50am 2ft 6s 4s 9 13 mph 1014.1mb 86f 85f
2:50am 2.5ft 5s 5s 11 13 mph 1013.8mb 86f 85f
1:50am 2ft 8s 5s 11
mph
1013.1mb 87f 85f
12:50am 2ft 8s 5s 11
mph
1012.1mb 88f 85f
Mon 09/22 11:50pm 1.6ft 8s 5s 7 9 mph 1011.8mb 87f 85f
10:50pm 1.6ft 7s 5s 4 7 mph 1011.5mb 88f 85f
9:50pm 2ft 8s 5s 4 7 mph 1012mb 89f 85f
8:50pm 1.6ft 8s 5s 2 4 mph 1012.3mb 89f 85f
7:50pm 1.6ft 8s 5s 2 7 mph 1012.8mb 89f 85f
6:50pm 1.6ft 7s 5s 2 4 mph 1013.8mb 88f 85f
5:50pm 1.6ft 8s 5s 2 4 mph 1014.3mb 87f 85f
4:50pm 1.6ft 8s 5s  -  mph 1014.6mb 86f 84f
3:50pm 1.6ft 8s 5s  -  2 mph 1014.6mb 85f 83f
2:50pm 2ft 8s 5s 9 11 mph 1014.2mb 85f 80f
1:50pm 2ft 4s 4s 4 7 mph 1014mb 85f 84f
12:50pm 2ft 4s 4s 4 7 mph 1013.5mb 85f 84f
11:50am 2ft 8s 5s 4
mph
1013.2mb 85f 84f
10:50am 2ft 8s 4s 4
mph
1013mb 85f 84f
9:50am 2ft 8s 5s 4 7 mph 1012.5mb 85f 84f
8:50am 2.5ft 8s 4s 4 7 mph 1012.4mb 85f 84f
7:50am 2ft 8s 4s 11 13 mph 1012.7mb 85f 84f
6:50am 2.5ft 8s 4s 9 11 mph 1012.9mb 85f 85f
5:50am 2.5ft 8s 4s 11 13 mph 1013mb 85f 85f
4:50am 2.5ft 8s 4s 11 13 mph 1013.2mb 85f 85f
3:50am 2.5ft 8s 4s 16 18 mph 1013.3mb 85f 85f
2:50am 2ft 8s 4s 16 18 mph 1013.3mb 86f 85f
1:50am 1.6ft 8s 4s 13 16 mph 1012.5mb 86f 85f
12:50am 1.6ft 8s 5s 13 16 mph 1011.8mb 87f 85f
Sun 09/21 11:50pm 1.6ft 8s 4s 9 11 mph 1010.9mb 87f 85f
10:50pm 1.6ft 8s 4s 4 7 mph 1010.8mb 88f 85f
9:50pm 1.6ft 8s 5s 4 7 mph 1010.9mb 89f 85f
8:50pm 2ft 8s 5s 2 4 mph 1011.3mb 89f 85f
7:50pm 2ft 5s 5s 4 7 mph 1012.2mb 89f 85f
6:50pm 2ft 5s 4s 2 4 mph 1012.7mb 88f 85f
5:50pm 2ft 5s 4s 4 7 mph 1012.9mb 87f 85f
4:50pm 2ft 5s 4s 4
mph
1013.5mb 86f 85f
3:50pm 2ft 5s 4s 4 7 mph 1013.6mb 86f 85f
2:50pm 2ft 5s 4s  -  2 mph 1013.3mb 85f 83f
1:50pm 2ft 5s 4s 4 7 mph 1013.2mb 85f 83f
12:50pm 2ft 5s 4s 9
mph
1012.3mb 85f 84f
11:50am 2ft 5s 4s 9 11 mph 1011.6mb 85f 84f
10:50am 1.6ft 5s 4s 7 9 mph 1011.1mb 85f 83f
9:50am 1.6ft 5s 4s 7
mph
1010.7mb 85f 84f
8:50am 1.6ft 5s 4s 7
mph
1010.4mb 85f 84f
7:50am 2ft 5s 4s 9 11 mph 1010.6mb 85f 84f
6:50am 2ft 5s 4s 9
mph
1010.9mb 85f 85f
5:50am 2ft 5s 4s 7 9 mph 1011.6mb 86f 84f
4:50am 2ft 5s 4s 7 9 mph 1011.9mb 86f 85f
3:50am 2ft 5s 4s 9 11 mph 1011.6mb 86f 85f
2:50am 2ft 5s 5s 9
mph
1011mb 86f 85f
1:50am 2ft 5s 4s 9 11 mph 1010.1mb 86f 85f
Sat 09/20 11:50pm 2ft 6s 4s 7 9 mph 1009.3mb 87f 85f
10:50pm 2ft 5s 4s 7 9 mph 1009.2mb 87f 85f
9:50pm 2ft 5s 4s 4 7 mph 1009.3mb 87f 85f
8:50pm 2ft 5s 4s 4 7 mph 1009.5mb 87f 85f
7:50pm 2ft 5s 4s 4 7 mph 1009.8mb 86f 85f
6:50pm 2ft 5s 4s 7
mph
1010.6mb 86f 85f
5:50pm 2ft 5s 4s 7 9 mph 1011.4mb 86f 85f
4:50pm 2ft 5s 4s 7 9 mph 1011.9mb 86f 85f
3:50pm 2.5ft 5s 4s 7 9 mph 1011.9mb 85f 85f
2:50pm 2.5ft 5s 4s 9
mph
1011.8mb 85f 85f
1:50pm 2.5ft 5s 4s 9 11 mph 1011.3mb 85f 84f
12:50pm 2.5ft 5s 4s 9 13 mph 1010.5mb 85f 84f
11:50am 2.5ft 5s 4s 9 13 mph 1010mb 85f 84f
10:50am 2.5ft 6s 5s 9 11 mph 1009.9mb 85f 84f
9:50am 3ft 6s 5s 9 11 mph 1009.5mb 85f 83f
8:50am 2.5ft 5s 4s 9 11 mph 1009.6mb 85f 84f
7:50am 2.5ft 6s 4s 11 13 mph 1009.3mb 85f 83f
6:50am 3ft 6s 4s 16 18 mph 1009.3mb 85f 84f
5:50am 2.5ft 6s 4s 16 18 mph 1009.9mb 85f 84f
4:50am 2.5ft 6s 4s 13 16 mph 1010.8mb 85f 84f
3:50am 2.5ft 6s 4s 13 16 mph 1011.3mb 85f 84f
2:50am 2.5ft 6s 5s 13
mph
1010.9mb 85f 84f
1:50am 3ft 6s 5s 13
mph
1010.2mb 85f 84f
12:50am 3ft 5s 5s 11 13 mph 1009.6mb 85f 84f
Fri 09/19 11:50pm 3ft 6s 5s 11 13 mph 1009.3mb 86f 84f
10:50pm 3ft 5s 4s 11 13 mph 1009mb 86f 85f
9:50pm 3ft 6s 4s 11 13 mph 1008.8mb 86f 85f
8:50pm 3ft 6s 4s 11 13 mph 1008.8mb 86f 85f
7:50pm 2.5ft 5s 4s 11 13 mph 1009.3mb 86f 85f
6:50pm 3ft 5s 4s 11 13 mph 1009.7mb 85f 85f
5:50pm 3ft 5s 4s 13 16 mph 1010.4mb 85f 85f
4:50pm 3ft 5s 4s 13 16 mph 1011mb 85f 85f
3:50pm 3ft 5s 4s 16 18 mph 1011.1mb 85f 85f
2:50pm 3ft 5s 4s 16 18 mph 1010.9mb 85f 84f
1:50pm 2.5ft 5s 4s 16 20 mph 1010.7mb 85f 84f
12:50pm 2.5ft 5s 4s 16 20 mph 1010.4mb 85f 84f
11:50am 2.5ft 4s 4s 16 18 mph 1010.2mb 85f 84f
10:50am 2.5ft 4s 4s 16 20 mph 1009.9mb 85f 84f